sensor_id;sensor_type;location;lat;lon;timestamp;P1;durP1;ratioP1;P2;durP2;ratioP2
83145;SDS011;73037;51.110;4.706;2024-02-15T00:00:12;13.68;;;8.05;;
83145;SDS011;73037;51.110;4.706;2024-02-15T00:02:38;15.18;;;9.50;;
83145;SDS011;73037;51.110;4.706;2024-02-15T00:05:04;26.25;;;19.02;;
83145;SDS011;73037;51.110;4.706;2024-02-15T00:07:30;14.23;;;6.60;;
83145;SDS011;73037;51.110;4.706;2024-02-15T00:09:55;24.40;;;13.68;;
83145;SDS011;73037;51.110;4.706;2024-02-15T00:12:21;19.05;;;11.18;;
83145;SDS011;73037;51.110;4.706;2024-02-15T00:14:47;18.42;;;9.63;;
83145;SDS011;73037;51.110;4.706;2024-02-15T00:17:13;13.90;;;5.57;;
83145;SDS011;73037;51.110;4.706;2024-02-15T00:19:38;12.55;;;4.82;;
83145;SDS011;73037;51.110;4.706;2024-02-15T00:22:07;10.85;;;4.43;;
83145;SDS011;73037;51.110;4.706;2024-02-15T00:24:32;15.95;;;8.93;;
83145;SDS011;73037;51.110;4.706;2024-02-15T00:26:58;21.48;;;15.25;;
83145;SDS011;73037;51.110;4.706;2024-02-15T00:29:24;12.40;;;4.82;;
83145;SDS011;73037;51.110;4.706;2024-02-15T00:31:51;12.98;;;5.82;;
83145;SDS011;73037;51.110;4.706;2024-02-15T00:34:17;10.80;;;5.75;;
83145;SDS011;73037;51.110;4.706;2024-02-15T00:36:42;10.50;;;4.82;;
83145;SDS011;73037;51.110;4.706;2024-02-15T00:39:11;11.52;;;4.47;;
83145;SDS011;73037;51.110;4.706;2024-02-15T00:41:39;12.00;;;4.25;;
83145;SDS011;73037;51.110;4.706;2024-02-15T00:44:08;10.80;;;4.85;;
83145;SDS011;73037;51.110;4.706;2024-02-15T00:46:35;10.93;;;4.43;;
83145;SDS011;73037;51.110;4.706;2024-02-15T00:49:01;8.38;;;3.83;;
83145;SDS011;73037;51.110;4.706;2024-02-15T00:51:28;9.70;;;3.92;;
83145;SDS011;73037;51.110;4.706;2024-02-15T00:53:54;9.65;;;3.78;;
83145;SDS011;73037;51.110;4.706;2024-02-15T00:56:20;11.25;;;4.15;;
83145;SDS011;73037;51.110;4.706;2024-02-15T00:58:47;8.35;;;3.80;;
83145;SDS011;73037;51.110;4.706;2024-02-15T01:01:13;10.15;;;4.65;;
83145;SDS011;73037;51.110;4.706;2024-02-15T01:03:40;8.63;;;4.03;;
83145;SDS011;73037;51.110;4.706;2024-02-15T01:06:05;8.82;;;3.60;;
83145;SDS011;73037;51.110;4.706;2024-02-15T01:08:31;9.50;;;3.20;;
83145;SDS011;73037;51.110;4.706;2024-02-15T01:10:58;11.15;;;3.60;;
83145;SDS011;73037;51.110;4.706;2024-02-15T01:13:24;10.27;;;3.47;;
83145;SDS011;73037;51.110;4.706;2024-02-15T01:15:50;10.50;;;3.42;;
83145;SDS011;73037;51.110;4.706;2024-02-15T01:18:16;7.20;;;3.10;;
83145;SDS011;73037;51.110;4.706;2024-02-15T01:20:41;11.05;;;3.60;;
83145;SDS011;73037;51.110;4.706;2024-02-15T01:23:07;8.32;;;3.53;;
83145;SDS011;73037;51.110;4.706;2024-02-15T01:25:33;7.30;;;2.85;;
83145;SDS011;73037;51.110;4.706;2024-02-15T01:27:59;9.40;;;3.28;;
83145;SDS011;73037;51.110;4.706;2024-02-15T01:30:26;7.65;;;3.50;;
83145;SDS011;73037;51.110;4.706;2024-02-15T01:37:45;8.68;;;3.88;;
83145;SDS011;73037;51.110;4.706;2024-02-15T01:40:10;9.48;;;4.43;;
83145;SDS011;73037;51.110;4.706;2024-02-15T01:42:38;9.32;;;3.47;;
83145;SDS011;73037;51.110;4.706;2024-02-15T01:45:04;10.35;;;4.57;;
83145;SDS011;73037;51.110;4.706;2024-02-15T01:47:31;5.45;;;2.95;;
83145;SDS011;73037;51.110;4.706;2024-02-15T01:49:56;10.90;;;5.47;;
83145;SDS011;73037;51.110;4.706;2024-02-15T01:52:23;30.33;;;20.05;;
83145;SDS011;73037;51.110;4.706;2024-02-15T01:54:49;10.20;;;3.80;;
83145;SDS011;73037;51.110;4.706;2024-02-15T01:57:18;12.20;;;6.50;;
83145;SDS011;73037;51.110;4.706;2024-02-15T01:59:46;15.15;;;10.50;;
83145;SDS011;73037;51.110;4.706;2024-02-15T02:02:12;12.98;;;5.93;;
83145;SDS011;73037;51.110;4.706;2024-02-15T02:04:41;19.65;;;11.30;;
83145;SDS011;73037;51.110;4.706;2024-02-15T02:07:07;16.48;;;9.55;;
83145;SDS011;73037;51.110;4.706;2024-02-15T02:09:34;8.27;;;3.97;;
83145;SDS011;73037;51.110;4.706;2024-02-15T02:11:59;10.95;;;2.58;;
83145;SDS011;73037;51.110;4.706;2024-02-15T02:14:25;16.55;;;5.10;;
83145;SDS011;73037;51.110;4.706;2024-02-15T02:16:51;9.80;;;5.43;;
83145;SDS011;73037;51.110;4.706;2024-02-15T02:19:16;8.63;;;2.22;;
83145;SDS011;73037;51.110;4.706;2024-02-15T02:21:42;8.57;;;3.00;;
83145;SDS011;73037;51.110;4.706;2024-02-15T02:26:39;5.18;;;2.50;;
83145;SDS011;73037;51.110;4.706;2024-02-15T02:29:05;5.95;;;2.30;;
83145;SDS011;73037;51.110;4.706;2024-02-15T02:31:35;8.15;;;3.13;;
83145;SDS011;73037;51.110;4.706;2024-02-15T02:34:01;10.20;;;5.22;;
83145;SDS011;73037;51.110;4.706;2024-02-15T02:36:27;8.07;;;2.60;;
83145;SDS011;73037;51.110;4.706;2024-02-15T02:38:54;13.07;;;9.27;;
83145;SDS011;73037;51.110;4.706;2024-02-15T02:41:20;12.75;;;4.57;;
83145;SDS011;73037;51.110;4.706;2024-02-15T02:43:46;16.50;;;6.28;;
83145;SDS011;73037;51.110;4.706;2024-02-15T02:46:12;9.95;;;4.50;;
83145;SDS011;73037;51.110;4.706;2024-02-15T02:48:38;28.58;;;17.67;;
83145;SDS011;73037;51.110;4.706;2024-02-15T02:51:04;6.20;;;3.42;;
83145;SDS011;73037;51.110;4.706;2024-02-15T02:53:31;10.15;;;5.22;;
83145;SDS011;73037;51.110;4.706;2024-02-15T02:55:57;10.60;;;2.55;;
83145;SDS011;73037;51.110;4.706;2024-02-15T02:58:23;6.63;;;2.25;;
83145;SDS011;73037;51.110;4.706;2024-02-15T03:00:49;8.95;;;2.40;;
83145;SDS011;73037;51.110;4.706;2024-02-15T03:03:15;11.48;;;2.80;;
83145;SDS011;73037;51.110;4.706;2024-02-15T03:05:41;10.75;;;3.42;;
83145;SDS011;73037;51.110;4.706;2024-02-15T03:08:13;9.13;;;2.78;;
83145;SDS011;73037;51.110;4.706;2024-02-15T03:10:39;12.45;;;5.00;;
83145;SDS011;73037;51.110;4.706;2024-02-15T03:13:05;8.90;;;3.13;;
83145;SDS011;73037;51.110;4.706;2024-02-15T03:15:32;9.50;;;3.42;;
83145;SDS011;73037;51.110;4.706;2024-02-15T03:17:59;6.70;;;2.45;;
83145;SDS011;73037;51.110;4.706;2024-02-15T03:20:25;8.00;;;3.15;;
83145;SDS011;73037;51.110;4.706;2024-02-15T03:22:54;9.55;;;3.08;;
83145;SDS011;73037;51.110;4.706;2024-02-15T03:25:20;12.95;;;6.25;;
83145;SDS011;73037;51.110;4.706;2024-02-15T03:27:49;9.63;;;3.08;;
83145;SDS011;73037;51.110;4.706;2024-02-15T03:30:18;7.97;;;3.22;;
83145;SDS011;73037;51.110;4.706;2024-02-15T03:32:47;11.00;;;7.57;;
83145;SDS011;73037;51.110;4.706;2024-02-15T03:35:16;8.02;;;3.22;;
83145;SDS011;73037;51.110;4.706;2024-02-15T03:37:43;20.25;;;12.35;;
83145;SDS011;73037;51.110;4.706;2024-02-15T03:40:09;10.40;;;4.22;;
83145;SDS011;73037;51.110;4.706;2024-02-15T03:42:35;13.75;;;7.18;;
83145;SDS011;73037;51.110;4.706;2024-02-15T03:45:04;10.60;;;4.70;;
83145;SDS011;73037;51.110;4.706;2024-02-15T03:47:33;10.18;;;3.72;;
83145;SDS011;73037;51.110;4.706;2024-02-15T03:50:03;12.27;;;7.30;;
83145;SDS011;73037;51.110;4.706;2024-02-15T03:52:29;10.60;;;3.60;;
83145;SDS011;73037;51.110;4.706;2024-02-15T03:54:56;11.85;;;6.63;;
83145;SDS011;73037;51.110;4.706;2024-02-15T03:57:25;14.73;;;10.82;;
83145;SDS011;73037;51.110;4.706;2024-02-15T03:59:51;11.40;;;6.28;;
83145;SDS011;73037;51.110;4.706;2024-02-15T04:02:19;9.75;;;5.20;;
83145;SDS011;73037;51.110;4.706;2024-02-15T04:04:51;10.23;;;2.40;;
83145;SDS011;73037;51.110;4.706;2024-02-15T04:07:19;5.38;;;2.60;;
83145;SDS011;73037;51.110;4.706;2024-02-15T04:09:46;9.70;;;2.33;;
83145;SDS011;73037;51.110;4.706;2024-02-15T04:12:12;6.75;;;2.20;;
83145;SDS011;73037;51.110;4.706;2024-02-15T04:14:39;8.15;;;2.53;;
83145;SDS011;73037;51.110;4.706;2024-02-15T04:17:05;9.63;;;2.40;;
83145;SDS011;73037;51.110;4.706;2024-02-15T04:19:31;8.68;;;2.58;;
83145;SDS011;73037;51.110;4.706;2024-02-15T04:21:57;8.63;;;2.55;;
83145;SDS011;73037;51.110;4.706;2024-02-15T04:24:24;9.70;;;2.83;;
83145;SDS011;73037;51.110;4.706;2024-02-15T04:26:50;11.68;;;4.40;;
83145;SDS011;73037;51.110;4.706;2024-02-15T04:29:16;6.28;;;1.92;;
83145;SDS011;73037;51.110;4.706;2024-02-15T04:31:45;7.25;;;2.55;;
83145;SDS011;73037;51.110;4.706;2024-02-15T04:34:17;8.35;;;2.60;;
83145;SDS011;73037;51.110;4.706;2024-02-15T04:36:46;10.05;;;4.72;;
83145;SDS011;73037;51.110;4.706;2024-02-15T04:39:18;10.55;;;3.65;;
83145;SDS011;73037;51.110;4.706;2024-02-15T04:41:53;12.00;;;2.90;;
83145;SDS011;73037;51.110;4.706;2024-02-15T04:44:20;8.40;;;3.53;;
83145;SDS011;73037;51.110;4.706;2024-02-15T04:46:46;8.23;;;2.30;;
83145;SDS011;73037;51.110;4.706;2024-02-15T04:49:14;5.20;;;2.00;;
83145;SDS011;73037;51.110;4.706;2024-02-15T04:51:40;6.82;;;2.30;;
83145;SDS011;73037;51.110;4.706;2024-02-15T04:54:09;5.90;;;2.05;;
83145;SDS011;73037;51.110;4.706;2024-02-15T04:56:41;6.45;;;2.08;;
83145;SDS011;73037;51.110;4.706;2024-02-15T04:59:09;4.97;;;2.10;;
83145;SDS011;73037;51.110;4.706;2024-02-15T05:01:40;5.40;;;2.33;;
83145;SDS011;73037;51.110;4.706;2024-02-15T05:04:09;6.55;;;2.17;;
83145;SDS011;73037;51.110;4.706;2024-02-15T05:06:35;7.88;;;1.95;;
83145;SDS011;73037;51.110;4.706;2024-02-15T05:09:01;3.28;;;1.85;;
83145;SDS011;73037;51.110;4.706;2024-02-15T05:11:32;6.80;;;2.00;;
83145;SDS011;73037;51.110;4.706;2024-02-15T05:14:01;6.35;;;1.95;;
83145;SDS011;73037;51.110;4.706;2024-02-15T05:16:33;9.15;;;2.35;;
83145;SDS011;73037;51.110;4.706;2024-02-15T05:18:59;8.30;;;2.42;;
83145;SDS011;73037;51.110;4.706;2024-02-15T05:21:25;9.00;;;2.33;;
83145;SDS011;73037;51.110;4.706;2024-02-15T05:23:51;8.52;;;2.55;;
83145;SDS011;73037;51.110;4.706;2024-02-15T05:26:17;6.00;;;2.38;;
83145;SDS011;73037;51.110;4.706;2024-02-15T05:28:48;7.50;;;2.35;;
83145;SDS011;73037;51.110;4.706;2024-02-15T05:31:16;6.63;;;2.50;;
83145;SDS011;73037;51.110;4.706;2024-02-15T05:33:45;8.68;;;2.97;;
83145;SDS011;73037;51.110;4.706;2024-02-15T05:36:15;6.18;;;2.33;;
83145;SDS011;73037;51.110;4.706;2024-02-15T05:38:45;7.43;;;2.20;;
83145;SDS011;73037;51.110;4.706;2024-02-15T05:41:16;5.78;;;1.95;;
83145;SDS011;73037;51.110;4.706;2024-02-15T05:43:42;8.82;;;2.20;;
83145;SDS011;73037;51.110;4.706;2024-02-15T05:46:08;7.68;;;2.40;;
83145;SDS011;73037;51.110;4.706;2024-02-15T05:48:35;7.35;;;2.00;;
83145;SDS011;73037;51.110;4.706;2024-02-15T05:51:02;6.32;;;2.10;;
83145;SDS011;73037;51.110;4.706;2024-02-15T05:55:55;6.80;;;1.70;;
83145;SDS011;73037;51.110;4.706;2024-02-15T05:58:23;6.68;;;2.08;;
83145;SDS011;73037;51.110;4.706;2024-02-15T06:00:49;6.68;;;2.30;;
83145;SDS011;73037;51.110;4.706;2024-02-15T06:03:15;8.10;;;2.10;;
83145;SDS011;73037;51.110;4.706;2024-02-15T06:05:42;12.38;;;2.13;;
83145;SDS011;73037;51.110;4.706;2024-02-15T06:08:08;5.03;;;2.15;;
83145;SDS011;73037;51.110;4.706;2024-02-15T06:10:34;9.20;;;2.25;;
83145;SDS011;73037;51.110;4.706;2024-02-15T06:13:00;6.68;;;2.25;;
83145;SDS011;73037;51.110;4.706;2024-02-15T06:15:26;5.30;;;2.40;;
83145;SDS011;73037;51.110;4.706;2024-02-15T06:17:52;9.10;;;2.90;;
83145;SDS011;73037;51.110;4.706;2024-02-15T06:20:18;7.50;;;2.28;;
83145;SDS011;73037;51.110;4.706;2024-02-15T06:25:11;8.80;;;2.47;;
83145;SDS011;73037;51.110;4.706;2024-02-15T06:27:38;7.03;;;2.00;;
83145;SDS011;73037;51.110;4.706;2024-02-15T06:30:09;5.90;;;2.67;;
83145;SDS011;73037;51.110;4.706;2024-02-15T06:32:54;10.07;;;2.78;;
83145;SDS011;73037;51.110;4.706;2024-02-15T06:35:38;10.85;;;4.45;;
83145;SDS011;73037;51.110;4.706;2024-02-15T06:38:23;9.15;;;3.90;;
83145;SDS011;73037;51.110;4.706;2024-02-15T06:41:07;5.85;;;2.20;;
83145;SDS011;73037;51.110;4.706;2024-02-15T06:43:34;8.88;;;3.60;;
83145;SDS011;73037;51.110;4.706;2024-02-15T06:46:00;9.60;;;3.30;;
83145;SDS011;73037;51.110;4.706;2024-02-15T06:48:26;8.38;;;2.58;;
83145;SDS011;73037;51.110;4.706;2024-02-15T06:50:52;6.15;;;3.17;;
83145;SDS011;73037;51.110;4.706;2024-02-15T06:53:17;6.85;;;2.47;;
83145;SDS011;73037;51.110;4.706;2024-02-15T06:55:45;8.60;;;3.78;;
83145;SDS011;73037;51.110;4.706;2024-02-15T06:58:14;7.65;;;2.97;;
83145;SDS011;73037;51.110;4.706;2024-02-15T07:00:41;11.60;;;4.32;;
83145;SDS011;73037;51.110;4.706;2024-02-15T07:03:08;24.50;;;9.10;;
83145;SDS011;73037;51.110;4.706;2024-02-15T07:05:34;14.60;;;6.57;;
83145;SDS011;73037;51.110;4.706;2024-02-15T07:08:00;15.30;;;7.60;;
83145;SDS011;73037;51.110;4.706;2024-02-15T07:10:26;11.15;;;6.13;;
83145;SDS011;73037;51.110;4.706;2024-02-15T07:12:52;11.55;;;3.58;;
83145;SDS011;73037;51.110;4.706;2024-02-15T07:15:17;9.85;;;2.88;;
83145;SDS011;73037;51.110;4.706;2024-02-15T07:17:43;7.78;;;3.15;;
83145;SDS011;73037;51.110;4.706;2024-02-15T07:20:11;9.13;;;2.88;;
83145;SDS011;73037;51.110;4.706;2024-02-15T07:22:42;8.63;;;2.58;;
83145;SDS011;73037;51.110;4.706;2024-02-15T07:25:09;7.97;;;3.10;;
83145;SDS011;73037;51.110;4.706;2024-02-15T07:27:35;33.58;;;16.25;;
83145;SDS011;73037;51.110;4.706;2024-02-15T07:30:01;13.05;;;5.88;;
83145;SDS011;73037;51.110;4.706;2024-02-15T07:32:28;16.92;;;7.55;;
83145;SDS011;73037;51.110;4.706;2024-02-15T07:34:56;24.77;;;13.38;;
83145;SDS011;73037;51.110;4.706;2024-02-15T07:37:22;6.82;;;3.00;;
83145;SDS011;73037;51.110;4.706;2024-02-15T07:39:51;11.70;;;4.90;;
83145;SDS011;73037;51.110;4.706;2024-02-15T07:42:17;11.00;;;4.90;;
83145;SDS011;73037;51.110;4.706;2024-02-15T07:44:43;7.72;;;4.07;;
83145;SDS011;73037;51.110;4.706;2024-02-15T07:47:08;9.93;;;3.00;;
83145;SDS011;73037;51.110;4.706;2024-02-15T07:49:35;10.70;;;2.90;;
83145;SDS011;73037;51.110;4.706;2024-02-15T07:52:02;6.85;;;2.92;;
83145;SDS011;73037;51.110;4.706;2024-02-15T07:54:29;10.05;;;2.72;;
83145;SDS011;73037;51.110;4.706;2024-02-15T07:56:56;8.52;;;2.50;;
83145;SDS011;73037;51.110;4.706;2024-02-15T07:59:23;11.70;;;3.08;;
83145;SDS011;73037;51.110;4.706;2024-02-15T08:01:49;9.10;;;3.65;;
83145;SDS011;73037;51.110;4.706;2024-02-15T08:04:18;15.82;;;8.80;;
83145;SDS011;73037;51.110;4.706;2024-02-15T08:06:45;26.88;;;17.15;;
83145;SDS011;73037;51.110;4.706;2024-02-15T08:09:14;15.80;;;10.48;;
83145;SDS011;73037;51.110;4.706;2024-02-15T08:11:43;14.40;;;7.38;;
83145;SDS011;73037;51.110;4.706;2024-02-15T08:14:09;8.63;;;5.70;;
83145;SDS011;73037;51.110;4.706;2024-02-15T08:16:35;7.32;;;3.58;;
83145;SDS011;73037;51.110;4.706;2024-02-15T08:19:06;5.03;;;2.10;;
83145;SDS011;73037;51.110;4.706;2024-02-15T08:21:32;6.32;;;2.22;;
83145;SDS011;73037;51.110;4.706;2024-02-15T08:24:00;5.05;;;1.73;;
83145;SDS011;73037;51.110;4.706;2024-02-15T08:26:33;6.53;;;2.42;;
83145;SDS011;73037;51.110;4.706;2024-02-15T08:29:03;4.32;;;2.00;;
83145;SDS011;73037;51.110;4.706;2024-02-15T08:31:29;7.20;;;2.25;;
83145;SDS011;73037;51.110;4.706;2024-02-15T08:33:59;4.90;;;1.90;;
83145;SDS011;73037;51.110;4.706;2024-02-15T08:36:26;5.43;;;2.00;;
83145;SDS011;73037;51.110;4.706;2024-02-15T08:38:51;8.57;;;1.98;;
83145;SDS011;73037;51.110;4.706;2024-02-15T08:41:17;6.63;;;1.80;;
83145;SDS011;73037;51.110;4.706;2024-02-15T08:43:43;7.13;;;1.88;;
83145;SDS011;73037;51.110;4.706;2024-02-15T08:46:13;5.05;;;1.55;;
83145;SDS011;73037;51.110;4.706;2024-02-15T08:48:39;5.20;;;1.60;;
83145;SDS011;73037;51.110;4.706;2024-02-15T08:51:05;5.20;;;1.60;;
83145;SDS011;73037;51.110;4.706;2024-02-15T08:53:33;4.68;;;1.52;;
83145;SDS011;73037;51.110;4.706;2024-02-15T08:56:02;3.95;;;1.60;;
83145;SDS011;73037;51.110;4.706;2024-02-15T08:58:28;6.30;;;1.73;;
83145;SDS011;73037;51.110;4.706;2024-02-15T09:00:55;3.38;;;1.20;;
83145;SDS011;73037;51.110;4.706;2024-02-15T09:03:21;4.25;;;1.77;;
83145;SDS011;73037;51.110;4.706;2024-02-15T09:05:47;7.10;;;4.30;;
83145;SDS011;73037;51.110;4.706;2024-02-15T09:08:13;6.97;;;2.70;;
83145;SDS011;73037;51.110;4.706;2024-02-15T09:10:40;10.57;;;6.95;;
83145;SDS011;73037;51.110;4.706;2024-02-15T09:13:07;5.72;;;3.70;;
83145;SDS011;73037;51.110;4.706;2024-02-15T09:15:33;17.88;;;12.50;;
83145;SDS011;73037;51.110;4.706;2024-02-15T09:17:59;6.93;;;3.88;;
83145;SDS011;73037;51.110;4.706;2024-02-15T09:20:24;11.00;;;7.30;;
83145;SDS011;73037;51.110;4.706;2024-02-15T09:22:53;3.15;;;2.10;;
83145;SDS011;73037;51.110;4.706;2024-02-15T09:27:49;5.32;;;1.27;;
83145;SDS011;73037;51.110;4.706;2024-02-15T09:30:16;3.97;;;1.52;;
83145;SDS011;73037;51.110;4.706;2024-02-15T09:32:43;3.53;;;2.33;;
83145;SDS011;73037;51.110;4.706;2024-02-15T09:35:09;5.68;;;1.88;;
83145;SDS011;73037;51.110;4.706;2024-02-15T09:37:43;4.85;;;2.78;;
83145;SDS011;73037;51.110;4.706;2024-02-15T09:40:11;2.22;;;1.70;;
83145;SDS011;73037;51.110;4.706;2024-02-15T09:42:38;2.97;;;1.90;;
83145;SDS011;73037;51.110;4.706;2024-02-15T09:45:05;4.72;;;1.95;;
83145;SDS011;73037;51.110;4.706;2024-02-15T09:47:34;4.55;;;1.83;;
83145;SDS011;73037;51.110;4.706;2024-02-15T09:50:10;8.20;;;4.15;;
83145;SDS011;73037;51.110;4.706;2024-02-15T09:55:03;5.50;;;2.42;;
83145;SDS011;73037;51.110;4.706;2024-02-15T09:57:30;4.38;;;1.45;;
83145;SDS011;73037;51.110;4.706;2024-02-15T10:00:00;5.68;;;1.70;;
83145;SDS011;73037;51.110;4.706;2024-02-15T10:02:28;5.05;;;2.00;;
83145;SDS011;73037;51.110;4.706;2024-02-15T10:04:55;3.75;;;1.50;;
83145;SDS011;73037;51.110;4.706;2024-02-15T10:07:25;4.03;;;1.33;;
83145;SDS011;73037;51.110;4.706;2024-02-15T10:09:52;3.47;;;1.50;;
83145;SDS011;73037;51.110;4.706;2024-02-15T10:12:18;3.03;;;1.42;;
83145;SDS011;73037;51.110;4.706;2024-02-15T10:14:49;4.63;;;1.27;;
83145;SDS011;73037;51.110;4.706;2024-02-15T10:17:17;3.10;;;1.33;;
83145;SDS011;73037;51.110;4.706;2024-02-15T10:19:44;3.30;;;1.17;;
83145;SDS011;73037;51.110;4.706;2024-02-15T10:22:12;3.22;;;1.05;;
83145;SDS011;73037;51.110;4.706;2024-02-15T10:24:39;2.47;;;1.10;;
83145;SDS011;73037;51.110;4.706;2024-02-15T10:27:06;1.67;;;1.15;;
83145;SDS011;73037;51.110;4.706;2024-02-15T10:29:35;4.72;;;2.53;;
83145;SDS011;73037;51.110;4.706;2024-02-15T10:32:01;4.15;;;1.40;;
83145;SDS011;73037;51.110;4.706;2024-02-15T10:34:28;2.90;;;1.10;;
83145;SDS011;73037;51.110;4.706;2024-02-15T10:37:15;2.72;;;1.48;;
83145;SDS011;73037;51.110;4.706;2024-02-15T10:39:42;2.25;;;1.20;;
83145;SDS011;73037;51.110;4.706;2024-02-15T10:42:08;3.72;;;2.03;;
83145;SDS011;73037;51.110;4.706;2024-02-15T10:44:38;3.13;;;1.45;;
83145;SDS011;73037;51.110;4.706;2024-02-15T10:49:32;4.93;;;1.95;;
83145;SDS011;73037;51.110;4.706;2024-02-15T10:51:59;4.28;;;1.40;;
83145;SDS011;73037;51.110;4.706;2024-02-15T10:54:52;3.75;;;1.40;;
83145;SDS011;73037;51.110;4.706;2024-02-15T10:57:22;7.30;;;2.50;;
83145;SDS011;73037;51.110;4.706;2024-02-15T10:59:54;5.40;;;2.25;;
83145;SDS011;73037;51.110;4.706;2024-02-15T11:02:26;7.15;;;2.60;;
83145;SDS011;73037;51.110;4.706;2024-02-15T11:04:55;8.57;;;2.60;;
83145;SDS011;73037;51.110;4.706;2024-02-15T11:07:28;7.18;;;2.65;;
83145;SDS011;73037;51.110;4.706;2024-02-15T11:09:54;5.07;;;2.63;;
83145;SDS011;73037;51.110;4.706;2024-02-15T11:12:24;3.97;;;1.67;;
83145;SDS011;73037;51.110;4.706;2024-02-15T11:14:53;6.50;;;3.38;;
83145;SDS011;73037;51.110;4.706;2024-02-15T11:20:08;3.30;;;2.03;;
83145;SDS011;73037;51.110;4.706;2024-02-15T11:22:39;4.75;;;2.00;;
83145;SDS011;73037;51.110;4.706;2024-02-15T11:25:07;11.88;;;6.35;;
83145;SDS011;73037;51.110;4.706;2024-02-15T11:27:43;4.75;;;2.65;;
83145;SDS011;73037;51.110;4.706;2024-02-15T11:30:09;4.97;;;2.00;;
83145;SDS011;73037;51.110;4.706;2024-02-15T11:35:10;3.25;;;1.30;;
83145;SDS011;73037;51.110;4.706;2024-02-15T11:40:16;3.53;;;1.83;;
83145;SDS011;73037;51.110;4.706;2024-02-15T11:42:58;4.63;;;2.03;;
83145;SDS011;73037;51.110;4.706;2024-02-15T11:45:25;1.85;;;1.00;;
83145;SDS011;73037;51.110;4.706;2024-02-15T11:47:57;3.47;;;1.52;;
83145;SDS011;73037;51.110;4.706;2024-02-15T11:50:22;2.53;;;1.30;;
83145;SDS011;73037;51.110;4.706;2024-02-15T11:52:48;4.40;;;1.88;;
83145;SDS011;73037;51.110;4.706;2024-02-15T11:55:18;4.05;;;1.77;;
83145;SDS011;73037;51.110;4.706;2024-02-15T12:00:30;4.60;;;1.88;;
83145;SDS011;73037;51.110;4.706;2024-02-15T12:03:15;3.67;;;1.30;;
83145;SDS011;73037;51.110;4.706;2024-02-15T12:06:00;3.80;;;1.40;;
83145;SDS011;73037;51.110;4.706;2024-02-15T12:08:48;5.28;;;2.53;;
83145;SDS011;73037;51.110;4.706;2024-02-15T12:11:33;3.65;;;1.50;;
83145;SDS011;73037;51.110;4.706;2024-02-15T12:14:18;4.32;;;2.17;;
83145;SDS011;73037;51.110;4.706;2024-02-15T12:19:50;2.92;;;1.73;;
83145;SDS011;73037;51.110;4.706;2024-02-15T12:22:25;4.50;;;2.40;;
83145;SDS011;73037;51.110;4.706;2024-02-15T12:24:56;2.03;;;1.17;;
83145;SDS011;73037;51.110;4.706;2024-02-15T12:27:23;2.08;;;1.00;;
83145;SDS011;73037;51.110;4.706;2024-02-15T12:32:24;4.60;;;1.83;;
83145;SDS011;73037;51.110;4.706;2024-02-15T12:34:51;2.88;;;1.17;;
83145;SDS011;73037;51.110;4.706;2024-02-15T12:37:18;2.60;;;0.93;;
83145;SDS011;73037;51.110;4.706;2024-02-15T12:39:48;2.95;;;1.20;;
83145;SDS011;73037;51.110;4.706;2024-02-15T12:42:15;2.25;;;1.10;;
83145;SDS011;73037;51.110;4.706;2024-02-15T12:44:46;2.88;;;1.20;;
83145;SDS011;73037;51.110;4.706;2024-02-15T12:47:18;3.05;;;0.82;;
83145;SDS011;73037;51.110;4.706;2024-02-15T12:55:19;1.83;;;1.10;;
83145;SDS011;73037;51.110;4.706;2024-02-15T12:57:50;1.40;;;1.10;;
83145;SDS011;73037;51.110;4.706;2024-02-15T13:00:20;4.00;;;1.05;;
83145;SDS011;73037;51.110;4.706;2024-02-15T13:02:57;2.08;;;0.70;;
83145;SDS011;73037;51.110;4.706;2024-02-15T13:05:26;3.45;;;1.00;;
83145;SDS011;73037;51.110;4.706;2024-02-15T13:07:53;3.42;;;1.33;;
83145;SDS011;73037;51.110;4.706;2024-02-15T13:10:35;3.63;;;0.90;;
83145;SDS011;73037;51.110;4.706;2024-02-15T13:13:01;3.33;;;1.10;;
83145;SDS011;73037;51.110;4.706;2024-02-15T13:15:27;2.53;;;0.90;;
83145;SDS011;73037;51.110;4.706;2024-02-15T13:17:57;2.28;;;0.95;;
83145;SDS011;73037;51.110;4.706;2024-02-15T13:23:01;2.65;;;0.93;;
83145;SDS011;73037;51.110;4.706;2024-02-15T13:25:33;3.33;;;0.90;;
83145;SDS011;73037;51.110;4.706;2024-02-15T13:28:04;3.65;;;0.85;;
83145;SDS011;73037;51.110;4.706;2024-02-15T13:30:30;2.22;;;0.63;;
83145;SDS011;73037;51.110;4.706;2024-02-15T13:32:56;2.67;;;0.90;;
83145;SDS011;73037;51.110;4.706;2024-02-15T13:35:22;1.80;;;0.73;;
83145;SDS011;73037;51.110;4.706;2024-02-15T13:37:51;1.80;;;0.80;;
83145;SDS011;73037;51.110;4.706;2024-02-15T13:40:23;1.92;;;0.60;;
83145;SDS011;73037;51.110;4.706;2024-02-15T13:42:51;1.20;;;0.70;;
83145;SDS011;73037;51.110;4.706;2024-02-15T13:45:21;1.45;;;0.80;;
83145;SDS011;73037;51.110;4.706;2024-02-15T13:47:48;3.42;;;0.80;;
83145;SDS011;73037;51.110;4.706;2024-02-15T13:50:20;2.20;;;0.82;;
83145;SDS011;73037;51.110;4.706;2024-02-15T13:52:46;2.85;;;0.90;;
83145;SDS011;73037;51.110;4.706;2024-02-15T13:55:13;1.90;;;0.70;;
83145;SDS011;73037;51.110;4.706;2024-02-15T13:57:40;1.00;;;0.80;;
83145;SDS011;73037;51.110;4.706;2024-02-15T14:00:10;2.53;;;0.88;;
83145;SDS011;73037;51.110;4.706;2024-02-15T14:02:49;1.73;;;1.00;;
83145;SDS011;73037;51.110;4.706;2024-02-15T14:05:16;2.28;;;0.80;;
83145;SDS011;73037;51.110;4.706;2024-02-15T14:07:54;3.17;;;0.80;;
83145;SDS011;73037;51.110;4.706;2024-02-15T14:10:24;1.92;;;0.73;;
83145;SDS011;73037;51.110;4.706;2024-02-15T14:12:52;3.20;;;1.13;;
83145;SDS011;73037;51.110;4.706;2024-02-15T14:15:20;3.60;;;1.17;;
83145;SDS011;73037;51.110;4.706;2024-02-15T14:17:46;1.73;;;0.65;;
83145;SDS011;73037;51.110;4.706;2024-02-15T14:20:12;1.75;;;0.60;;
83145;SDS011;73037;51.110;4.706;2024-02-15T14:22:43;3.30;;;0.75;;
83145;SDS011;73037;51.110;4.706;2024-02-15T14:25:14;2.28;;;0.80;;
83145;SDS011;73037;51.110;4.706;2024-02-15T14:27:40;2.40;;;0.95;;
83145;SDS011;73037;51.110;4.706;2024-02-15T14:30:07;1.50;;;0.70;;
83145;SDS011;73037;51.110;4.706;2024-02-15T14:32:52;2.03;;;0.70;;
83145;SDS011;73037;51.110;4.706;2024-02-15T14:35:30;1.50;;;0.80;;
83145;SDS011;73037;51.110;4.706;2024-02-15T14:37:59;2.10;;;0.73;;
83145;SDS011;73037;51.110;4.706;2024-02-15T14:40:28;5.90;;;0.80;;
83145;SDS011;73037;51.110;4.706;2024-02-15T14:42:54;2.58;;;0.73;;
83145;SDS011;73037;51.110;4.706;2024-02-15T14:45:19;3.28;;;1.00;;
83145;SDS011;73037;51.110;4.706;2024-02-15T14:47:45;1.40;;;0.85;;
83145;SDS011;73037;51.110;4.706;2024-02-15T14:50:12;1.38;;;0.60;;
83145;SDS011;73037;51.110;4.706;2024-02-15T14:52:39;3.13;;;0.70;;
83145;SDS011;73037;51.110;4.706;2024-02-15T14:55:05;2.33;;;0.90;;
83145;SDS011;73037;51.110;4.706;2024-02-15T14:57:33;3.33;;;0.63;;
83145;SDS011;73037;51.110;4.706;2024-02-15T14:59:59;1.42;;;0.57;;
83145;SDS011;73037;51.110;4.706;2024-02-15T15:02:25;1.55;;;0.60;;
83145;SDS011;73037;51.110;4.706;2024-02-15T15:04:51;1.52;;;0.80;;
83145;SDS011;73037;51.110;4.706;2024-02-15T15:07:43;1.05;;;0.60;;
83145;SDS011;73037;51.110;4.706;2024-02-15T15:10:28;1.35;;;0.52;;
83145;SDS011;73037;51.110;4.706;2024-02-15T15:13:12;1.85;;;0.55;;
83145;SDS011;73037;51.110;4.706;2024-02-15T15:15:38;3.03;;;0.50;;
83145;SDS011;73037;51.110;4.706;2024-02-15T15:18:05;1.65;;;0.60;;
83145;SDS011;73037;51.110;4.706;2024-02-15T15:20:32;1.27;;;0.50;;
83145;SDS011;73037;51.110;4.706;2024-02-15T15:22:59;1.30;;;0.57;;
83145;SDS011;73037;51.110;4.706;2024-02-15T15:25:25;0.90;;;0.60;;
83145;SDS011;73037;51.110;4.706;2024-02-15T15:27:53;2.03;;;0.70;;
83145;SDS011;73037;51.110;4.706;2024-02-15T15:30:20;1.33;;;0.90;;
83145;SDS011;73037;51.110;4.706;2024-02-15T15:32:49;1.38;;;0.50;;